createdAt,value
2018-04-23T00:00:32.786Z,0
2018-04-23T00:01:33.321Z,0
2018-04-23T00:02:33.033Z,0
2018-04-23T00:03:33.554Z,0
2018-04-23T00:04:33.004Z,0
2018-04-23T00:05:33.534Z,0
2018-04-23T00:06:33.510Z,0
2018-04-23T00:07:33.520Z,0
2018-04-23T00:08:33.486Z,0
2018-04-23T00:09:33.245Z,0
2018-04-23T00:10:33.201Z,0
2018-04-23T00:11:33.454Z,0
2018-04-23T00:12:33.175Z,0
2018-04-23T00:13:33.164Z,0
2018-04-23T00:14:33.162Z,0
2018-04-23T00:15:33.146Z,0
2018-04-23T00:16:33.391Z,0
2018-04-23T00:17:33.104Z,0
2018-04-23T00:18:33.365Z,0
2018-04-23T00:19:32.831Z,0
2018-04-23T00:20:33.344Z,0
2018-04-23T00:21:33.072Z,0
2018-04-23T00:22:33.054Z,0
2018-04-23T00:23:33.319Z,0
2018-04-23T00:24:33.029Z,0
2018-04-23T00:25:33.317Z,0
2018-04-23T00:26:32.737Z,0
2018-04-23T00:27:33.280Z,0
2018-04-23T00:28:32.996Z,0
2018-04-23T00:29:33.242Z,0
2018-04-23T00:30:32.953Z,0
2018-04-23T00:31:32.426Z,0
2018-04-23T00:32:32.931Z,0
2018-04-23T00:33:32.937Z,0
2018-04-23T00:34:32.647Z,0
2018-04-23T00:35:33.163Z,0
2018-04-23T00:36:32.622Z,0
2018-04-23T00:37:32.609Z,0
2018-04-23T00:38:32.864Z,0
2018-04-23T00:39:32.854Z,0
2018-04-23T00:40:33.107Z,0
2018-04-23T00:41:33.094Z,0
2018-04-23T00:42:32.754Z,0
2018-04-23T00:43:32.805Z,0
2018-04-23T00:44:32.789Z,0
2018-04-23T00:45:32.516Z,0
2018-04-23T00:46:32.506Z,0
2018-04-23T00:47:32.755Z,0
2018-04-23T00:48:32.482Z,0
2018-04-23T00:49:32.468Z,0
2018-04-23T00:50:32.725Z,0
2018-04-23T00:51:32.708Z,0
2018-04-23T00:52:32.958Z,0
2018-04-23T00:53:32.696Z,0
2018-04-23T00:54:32.417Z,0
2018-04-23T00:55:32.928Z,0
2018-04-23T00:56:32.646Z,0
2018-04-23T00:57:32.687Z,0
2018-04-23T00:58:32.646Z,0
2018-04-23T00:59:32.352Z,0
2018-04-23T01:00:32.601Z,0
2018-04-23T01:01:32.858Z,0
2018-04-23T01:02:32.618Z,0
2018-04-23T01:03:32.302Z,0
2018-04-23T01:04:32.298Z,0
2018-04-23T01:05:32.537Z,0
2018-04-23T01:06:32.523Z,0
2018-04-23T01:07:32.254Z,0
2018-04-23T01:08:32.790Z,0
2018-04-23T01:09:32.753Z,0
2018-04-23T01:10:32.471Z,0
2018-04-23T01:11:31.929Z,0
2018-04-23T01:12:32.720Z,0
2018-04-23T01:13:32.446Z,0
2018-04-23T01:14:32.441Z,0
2018-04-23T01:15:31.885Z,0
2018-04-23T01:16:32.136Z,0
2018-04-23T01:17:32.389Z,0
2018-04-23T01:18:32.410Z,0
2018-04-23T01:19:32.100Z,0
2018-04-23T01:20:32.642Z,0
2018-04-23T01:21:32.082Z,0
2018-04-23T01:22:32.613Z,0
2018-04-23T01:23:32.053Z,0
2018-04-23T01:24:32.322Z,0
2018-04-23T01:25:32.299Z,0
2018-04-23T01:26:32.281Z,0
2018-04-23T01:27:32.267Z,0
2018-04-23T01:28:31.731Z,0
2018-04-23T01:29:31.985Z,0
2018-04-23T01:30:31.980Z,0
2018-04-23T01:31:32.227Z,0
2018-04-23T01:32:32.222Z,0
2018-04-23T01:33:32.201Z,0
2018-04-23T01:34:32.513Z,0
2018-04-23T01:35:32.465Z,0
2018-04-23T01:36:32.158Z,0
2018-04-23T01:37:32.162Z,0
2018-04-23T01:38:32.153Z,0
2018-04-23T01:39:32.151Z,0
2018-04-23T01:40:32.399Z,0
2018-04-23T01:41:31.837Z,0
2018-04-23T01:42:31.831Z,0
2018-04-23T01:43:31.550Z,0
2018-04-23T01:44:32.067Z,0
2018-04-23T01:45:31.784Z,0
2018-04-23T01:46:31.514Z,0
2018-04-23T01:47:32.029Z,0
2018-04-23T01:48:32.019Z,0
2018-04-23T01:49:31.740Z,0
2018-04-23T01:50:31.990Z,0
2018-04-23T01:51:31.980Z,0
2018-04-23T01:52:31.966Z,0
2018-04-23T01:53:31.967Z,0
2018-04-23T01:54:31.947Z,0
2018-04-23T01:55:32.190Z,0
2018-04-23T01:56:32.185Z,0
2018-04-23T01:57:32.192Z,0
2018-04-23T01:58:31.906Z,0
2018-04-23T01:59:31.886Z,0
2018-04-23T02:00:31.612Z,0
2018-04-23T02:01:31.601Z,0
2018-04-23T02:02:32.113Z,0
2018-04-23T02:03:32.109Z,0
2018-04-23T02:04:32.078Z,0
2018-04-23T02:05:31.803Z,0
2018-04-23T02:06:31.539Z,0
2018-04-23T02:07:31.782Z,0
2018-04-23T02:08:31.518Z,0
2018-04-23T02:09:31.765Z,0
2018-04-23T02:10:31.488Z,0
2018-04-23T02:11:31.994Z,0
2018-04-23T02:12:31.988Z,0
2018-04-23T02:14:03.799Z,0
2018-04-23T02:14:31.425Z,0
2018-04-23T02:15:31.959Z,0
2018-04-23T02:16:31.672Z,0
2018-04-23T02:17:31.397Z,0
2018-04-23T02:18:31.391Z,0
2018-04-23T02:19:31.901Z,0
2018-04-23T02:20:31.625Z,0
2018-04-23T02:21:31.611Z,0
2018-04-23T02:22:31.328Z,0
2018-04-23T02:23:31.598Z,0
2018-04-23T02:24:31.313Z,0
2018-04-23T02:25:31.833Z,0
2018-04-23T02:26:31.555Z,0
2018-04-23T02:27:31.002Z,0
2018-04-23T02:28:31.840Z,0
2018-04-23T02:29:31.250Z,0
2018-04-23T02:30:30.973Z,0
2018-04-23T02:31:31.235Z,0
2018-04-23T02:32:31.479Z,0
2018-04-23T02:33:31.751Z,0
2018-04-23T02:34:31.191Z,0
2018-04-23T02:35:31.713Z,0
2018-04-23T02:36:31.702Z,0
2018-04-23T02:37:31.157Z,0
2018-04-23T02:38:31.669Z,0
2018-04-23T02:40:02.946Z,0
2018-04-23T02:40:31.391Z,0
2018-04-23T02:41:31.631Z,0
2018-04-23T02:42:31.564Z,0
2018-04-23T02:43:31.360Z,0
2018-04-23T02:44:31.333Z,0
2018-04-23T02:45:31.584Z,0
2018-04-23T02:46:31.303Z,0
2018-04-23T02:47:31.572Z,0
2018-04-23T02:48:31.026Z,0
2018-04-23T02:49:31.540Z,0
2018-04-23T02:50:31.257Z,0
2018-04-23T02:51:31.504Z,0
2018-04-23T02:52:31.233Z,0
2018-04-23T02:53:31.478Z,0
2018-04-23T02:54:31.473Z,0
2018-04-23T02:55:31.455Z,0
2018-04-23T02:56:30.916Z,0
2018-04-23T02:57:31.177Z,0
2018-04-23T02:58:30.893Z,0
2018-04-23T02:59:31.418Z,0
2018-04-23T03:00:31.123Z,0
2018-04-23T03:01:31.124Z,0
2018-04-23T03:02:31.367Z,0
2018-04-23T03:03:31.105Z,0
2018-04-23T03:04:31.157Z,0
2018-04-23T03:05:31.068Z,0
2018-04-23T03:06:31.049Z,0
2018-04-23T03:07:31.045Z,0
2018-04-23T03:08:30.768Z,0
2018-04-23T03:09:30.754Z,0
2018-04-23T03:10:30.736Z,0
2018-04-23T03:11:30.472Z,0
2018-04-23T03:12:30.721Z,0
2018-04-23T03:13:30.981Z,0
2018-04-23T03:14:30.692Z,0
2018-04-23T03:15:30.938Z,0
2018-04-23T03:16:30.665Z,0
2018-04-23T03:17:30.387Z,0
2018-04-23T03:18:31.175Z,0
2018-04-23T03:19:30.625Z,0
2018-04-23T03:20:31.152Z,0
2018-04-23T03:21:30.861Z,0
2018-04-23T03:22:30.856Z,0
2018-04-23T03:23:30.843Z,0
2018-04-23T03:24:30.310Z,0
2018-04-23T03:25:31.081Z,0
2018-04-23T03:26:30.542Z,0
2018-04-23T03:27:30.518Z,0
2018-04-23T03:28:30.516Z,0
2018-04-23T03:29:30.773Z,0
2018-04-23T03:30:30.488Z,0
2018-04-23T03:31:31.017Z,0
2018-04-23T03:32:31.007Z,0
2018-04-23T03:33:30.724Z,0
2018-04-23T03:34:30.978Z,0
2018-04-23T03:35:30.694Z,0
2018-04-23T03:36:30.949Z,0
2018-04-23T03:37:30.947Z,0
2018-04-23T03:38:30.388Z,0
2018-04-23T03:39:30.903Z,0
2018-04-23T03:40:30.360Z,0
2018-04-23T03:41:30.085Z,0
2018-04-23T03:42:30.864Z,0
2018-04-23T03:43:30.654Z,0
2018-04-23T03:44:31.076Z,0
2018-04-23T03:45:30.312Z,0
2018-04-23T03:46:30.558Z,0
2018-04-23T03:47:30.546Z,0
2018-04-23T03:48:30.520Z,0
2018-04-23T03:49:30.278Z,0
2018-04-23T03:50:30.806Z,4
2018-04-23T03:51:30.495Z,4
2018-04-23T03:52:30.478Z,0
2018-04-23T03:53:30.192Z,4
2018-04-23T03:54:30.446Z,4
2018-04-23T03:55:30.172Z,4
2018-04-23T03:56:30.684Z,4
2018-04-23T03:57:30.149Z,4
2018-04-23T03:58:29.869Z,8
2018-04-23T03:59:30.388Z,8
2018-04-23T04:00:30.637Z,8
2018-04-23T04:01:30.631Z,12
2018-04-23T04:02:30.628Z,12
2018-04-23T04:03:30.072Z,16
2018-04-23T04:04:29.792Z,16
2018-04-23T04:05:30.568Z,20
2018-04-23T04:06:29.772Z,20
2018-04-23T04:07:30.286Z,20
2018-04-23T04:08:30.540Z,24
2018-04-23T04:09:30.133Z,28
2018-04-23T04:10:29.983Z,32
2018-04-23T04:11:30.246Z,36
2018-04-23T04:12:30.247Z,40
2018-04-23T04:13:30.223Z,40
2018-04-23T04:14:30.494Z,40
2018-04-23T04:15:30.476Z,44
2018-04-23T04:16:30.445Z,44
2018-04-23T04:17:29.893Z,44
2018-04-23T04:18:30.145Z,52
2018-04-23T04:19:30.436Z,56
2018-04-23T04:20:30.127Z,68
2018-04-23T04:21:30.365Z,76
2018-04-23T04:22:30.108Z,92
2018-04-23T04:23:30.344Z,108
2018-04-23T04:24:30.072Z,116
2018-04-23T04:25:30.065Z,128
2018-04-23T04:26:29.790Z,136
2018-04-23T04:27:29.516Z,144
2018-04-23T04:28:29.773Z,152
2018-04-23T04:29:30.004Z,168
2018-04-23T04:30:29.992Z,176
2018-04-23T04:31:29.723Z,192
2018-04-23T04:32:29.698Z,196
2018-04-23T04:33:29.693Z,200
2018-04-23T04:34:29.937Z,212
2018-04-23T04:35:30.315Z,224
2018-04-23T04:36:29.931Z,232
2018-04-23T04:37:29.650Z,256
2018-04-23T04:38:29.638Z,288
2018-04-23T04:39:30.153Z,324
2018-04-23T04:40:29.873Z,348
2018-04-23T04:41:30.133Z,384
2018-04-23T04:42:30.326Z,416
2018-04-23T04:43:29.833Z,436
2018-04-23T04:44:29.545Z,468
2018-04-23T04:45:29.803Z,492
2018-04-23T04:46:30.064Z,524
2018-04-23T04:47:29.778Z,536
2018-04-23T04:48:30.047Z,556
2018-04-23T04:49:29.757Z,580
2018-04-23T04:50:29.475Z,608
2018-04-23T04:51:29.840Z,628
2018-04-23T04:52:29.452Z,648
2018-04-23T04:53:29.707Z,672
2018-04-23T04:54:29.695Z,688
2018-04-23T04:55:29.416Z,720
2018-04-23T04:56:29.406Z,752
2018-04-23T04:57:29.396Z,788
2018-04-23T04:58:29.914Z,836
2018-04-23T04:59:29.637Z,864
2018-04-23T05:00:29.886Z,864
2018-04-23T05:01:29.605Z,872
2018-04-23T05:02:29.326Z,908
2018-04-23T05:03:29.847Z,956
2018-04-23T05:04:29.609Z,976
2018-04-23T05:05:29.316Z,1032
2018-04-23T05:06:29.813Z,1060
2018-04-23T05:07:29.271Z,1072
2018-04-23T05:08:29.248Z,1132
2018-04-23T05:09:28.973Z,1176
2018-04-23T05:10:28.958Z,1212
2018-04-23T05:11:29.475Z,1272
2018-04-23T05:12:29.469Z,1292
2018-04-23T05:13:28.947Z,1328
2018-04-23T05:14:29.731Z,1384
2018-04-23T05:15:29.435Z,1432
2018-04-23T05:16:29.145Z,1508
2018-04-23T05:17:29.401Z,1600
2018-04-23T05:18:29.647Z,1672
2018-04-23T05:19:29.115Z,1692
2018-04-23T05:20:29.630Z,1764
2018-04-23T05:21:29.349Z,1888
2018-04-23T05:22:29.334Z,2000
2018-04-23T05:23:29.598Z,2132
2018-04-23T05:24:28.780Z,2196
2018-04-23T05:25:29.565Z,2212
2018-04-23T05:26:29.548Z,2336
2018-04-23T05:27:29.273Z,2528
2018-04-23T05:28:28.999Z,2636
2018-04-23T05:29:29.247Z,2712
2018-04-23T05:30:29.242Z,2772
2018-04-23T05:31:29.225Z,2660
2018-04-23T05:32:29.211Z,2680
2018-04-23T05:33:29.196Z,2856
2018-04-23T05:34:29.448Z,2716
2018-04-23T05:35:29.177Z,2648
2018-04-23T05:36:28.627Z,2708
2018-04-23T05:37:28.884Z,2916
2018-04-23T05:38:28.875Z,3056
2018-04-23T05:39:29.124Z,2976
2018-04-23T05:40:28.848Z,2952
2018-04-23T05:41:29.392Z,3020
2018-04-23T05:42:28.825Z,3116
2018-04-23T05:43:29.331Z,3136
2018-04-23T05:44:28.793Z,3268
2018-04-23T05:45:28.778Z,3508
2018-04-23T05:46:29.034Z,3692
2018-04-23T05:47:29.025Z,3628
2018-04-23T05:48:29.004Z,3564
2018-04-23T05:49:28.734Z,3604
2018-04-23T05:50:28.978Z,3580
2018-04-23T05:51:28.972Z,3504
2018-04-23T05:52:28.959Z,3520
2018-04-23T05:53:29.206Z,3628
2018-04-23T05:54:28.939Z,3868
2018-04-23T05:55:28.928Z,4040
2018-04-23T05:56:28.645Z,3980
2018-04-23T05:57:28.900Z,3816
2018-04-23T05:58:28.618Z,3696
2018-04-23T05:59:28.872Z,3860
2018-04-23T06:00:28.870Z,4204
2018-04-23T06:01:28.841Z,4360
2018-04-23T06:02:29.097Z,4432
2018-04-23T06:03:28.829Z,4076
2018-04-23T06:04:29.083Z,3672
2018-04-23T06:05:28.534Z,3140
2018-04-23T06:06:28.513Z,2880
2018-04-23T06:07:29.037Z,2832
2018-04-23T06:08:29.032Z,2908
2018-04-23T06:09:28.750Z,2916
2018-04-23T06:10:28.739Z,3000
2018-04-23T06:11:28.727Z,2812
2018-04-23T06:12:28.453Z,2576
2018-04-23T06:13:28.973Z,2704
2018-04-23T06:14:28.835Z,2956
2018-04-23T06:15:28.676Z,3252
2018-04-23T06:16:28.672Z,3424
2018-04-23T06:17:28.927Z,3520
2018-04-23T06:18:28.652Z,3784
2018-04-23T06:19:28.368Z,3888
2018-04-23T06:20:28.353Z,3764
2018-04-23T06:21:28.874Z,3912
2018-04-23T06:22:28.333Z,3928
2018-04-23T06:23:28.583Z,3616
2018-04-23T06:24:28.572Z,3452
2018-04-23T06:25:28.292Z,3384
2018-04-23T06:26:28.546Z,3192
2018-04-23T06:27:28.540Z,3512
2018-04-23T06:28:28.803Z,4128
2018-04-23T06:29:28.258Z,4488
2018-04-23T06:30:28.760Z,4292
2018-04-23T06:31:28.484Z,3900
2018-04-23T06:32:28.752Z,4176
2018-04-23T06:33:28.207Z,4936
2018-04-23T06:34:28.461Z,5236
2018-04-23T06:35:28.174Z,5700
2018-04-23T06:36:28.696Z,5956
2018-04-23T06:37:28.412Z,5560
2018-04-23T06:38:28.404Z,5256
2018-04-23T06:39:28.400Z,5728
2018-04-23T06:40:28.407Z,6088
2018-04-23T06:41:28.637Z,6080
2018-04-23T06:42:28.962Z,5524
2018-04-23T06:43:28.348Z,5192
2018-04-23T06:44:28.341Z,5372
2018-04-23T06:45:28.053Z,5616
2018-04-23T06:46:28.869Z,5804
2018-04-23T06:47:28.305Z,5932
2018-04-23T06:48:28.288Z,5704
2018-04-23T06:49:27.741Z,5108
2018-04-23T06:50:28.527Z,4580
2018-04-23T06:51:28.520Z,4232
2018-04-23T06:52:28.241Z,3460
2018-04-23T06:53:27.971Z,2972
2018-04-23T06:54:27.954Z,3016
2018-04-23T06:55:27.940Z,3836
2018-04-23T06:56:27.934Z,4680
2018-04-23T06:57:27.913Z,4888
2018-04-23T06:58:28.171Z,5016
2018-04-23T06:59:28.169Z,4684
2018-04-23T07:00:28.411Z,4464
2018-04-23T07:01:28.611Z,4168
2018-04-23T07:02:28.386Z,3944
2018-04-23T07:03:28.110Z,4008
2018-04-23T07:04:28.109Z,4260
2018-04-23T07:05:28.359Z,4332
2018-04-23T07:06:27.817Z,4384
2018-04-23T07:07:28.071Z,4820
2018-04-23T07:08:28.058Z,5068
2018-04-23T07:09:27.780Z,5340
2018-04-23T07:10:28.336Z,5224
2018-04-23T07:11:28.284Z,4828
2018-04-23T07:12:27.744Z,4716
2018-04-23T07:13:27.998Z,5060
2018-04-23T07:14:27.986Z,5228
2018-04-23T07:15:28.241Z,5152
2018-04-23T07:16:27.690Z,5408
2018-04-23T07:17:27.947Z,6076
2018-04-23T07:18:28.208Z,6148
2018-04-23T07:19:28.182Z,6352
2018-04-23T07:20:28.174Z,6000
2018-04-23T07:21:27.907Z,6068
2018-04-23T07:22:27.884Z,6144
2018-04-23T07:23:27.356Z,5940
2018-04-23T07:24:27.871Z,6084
2018-04-23T07:25:27.850Z,5804
2018-04-23T07:26:28.111Z,5764
2018-04-23T07:27:27.565Z,6156
2018-04-23T07:28:28.099Z,6316
2018-04-23T07:29:27.947Z,6460
2018-04-23T07:30:27.526Z,6360
2018-04-23T07:31:27.520Z,6368
2018-04-23T07:32:27.767Z,6408
2018-04-23T07:33:28.071Z,6288
2018-04-23T07:34:27.752Z,6664
2018-04-23T07:35:27.475Z,7348
2018-04-23T07:36:27.723Z,8288
2018-04-23T07:37:27.980Z,8280
2018-04-23T07:38:27.968Z,6756
2018-04-23T07:39:27.425Z,5688
2018-04-23T07:40:27.938Z,5944
2018-04-23T07:41:27.964Z,7200
2018-04-23T07:42:27.658Z,7432
2018-04-23T07:43:27.653Z,6492
2018-04-23T07:44:27.904Z,5480
2018-04-23T07:45:27.354Z,6264
2018-04-23T07:46:27.876Z,8996
2018-04-23T07:47:27.599Z,9784
2018-04-23T07:48:27.590Z,8656
2018-04-23T07:49:27.851Z,8536
2018-04-23T07:50:27.834Z,7644
2018-04-23T07:51:27.549Z,6696
2018-04-23T07:52:27.809Z,7272
2018-04-23T07:53:27.793Z,8408
2018-04-23T07:54:27.780Z,8848
2018-04-23T07:55:26.978Z,8612
2018-04-23T07:56:27.493Z,10212
2018-04-23T07:57:27.487Z,11284
2018-04-23T07:58:27.475Z,11364
2018-04-23T07:59:27.204Z,11212
2018-04-23T08:00:27.446Z,10700
2018-04-23T08:01:27.703Z,10160
2018-04-23T08:02:27.430Z,10272
2018-04-23T08:03:27.423Z,9560
2018-04-23T08:04:27.678Z,7852
2018-04-23T08:05:27.396Z,8176
2018-04-23T08:06:27.180Z,7836
2018-04-23T08:07:27.379Z,7828
2018-04-23T08:08:26.835Z,8368
2018-04-23T08:09:27.084Z,9384
2018-04-23T08:10:26.812Z,12600
2018-04-23T08:11:27.589Z,29632
2018-04-23T08:12:27.320Z,36000
2018-04-23T08:13:27.313Z,38880
2018-04-23T08:14:27.292Z,40608
2018-04-23T08:15:27.283Z,39712
2018-04-23T08:16:27.277Z,22272
2018-04-23T08:17:27.004Z,14220
2018-04-23T08:18:27.253Z,15808
2018-04-23T08:19:26.719Z,16640
2018-04-23T08:20:26.972Z,22976
2018-04-23T08:21:27.496Z,17504
2018-04-23T08:22:27.227Z,23776
2018-04-23T08:23:27.215Z,23136
2018-04-23T08:24:27.210Z,35936
2018-04-23T08:25:27.268Z,33280
2018-04-23T08:26:26.655Z,22336
2018-04-23T08:27:27.447Z,18144
2018-04-23T08:28:26.909Z,20160
2018-04-23T08:29:27.422Z,14752
2018-04-23T08:30:27.154Z,11360
2018-04-23T08:31:26.879Z,10852
2018-04-23T08:32:27.137Z,7980
2018-04-23T08:33:27.130Z,16484
2018-04-23T08:34:26.861Z,39904
2018-04-23T08:35:27.113Z,36704
2018-04-23T08:36:27.111Z,16896
2018-04-23T08:37:27.116Z,15016
2018-04-23T08:38:26.847Z,14756
2018-04-23T08:39:27.078Z,14512
2018-04-23T08:40:26.812Z,11668
2018-04-23T08:41:26.810Z,16768
2018-04-23T08:42:27.331Z,11380
2018-04-23T08:43:26.524Z,12740
2018-04-23T08:44:27.059Z,10672
2018-04-23T08:45:26.774Z,8360
2018-04-23T08:46:26.768Z,8936
2018-04-23T08:47:27.647Z,8828
2018-04-23T08:48:27.025Z,9280
2018-04-23T08:49:27.005Z,9632
2018-04-23T08:50:27.076Z,9360
2018-04-23T08:51:27.254Z,8960
2018-04-23T08:52:26.977Z,8956
2018-04-23T08:53:26.703Z,9436
2018-04-23T08:54:27.230Z,10068
2018-04-23T08:55:26.947Z,10660
2018-04-23T08:56:27.213Z,13464
2018-04-23T08:57:27.264Z,10484
2018-04-23T08:58:27.197Z,13260
2018-04-23T08:59:26.915Z,13684
2018-04-23T09:00:26.640Z,14480
2018-04-23T09:01:26.941Z,12948
2018-04-23T09:02:26.627Z,13216
2018-04-23T09:03:26.888Z,15588
2018-04-23T09:04:26.873Z,21792
2018-04-23T09:05:26.864Z,10948
2018-04-23T09:06:26.843Z,14784
2018-04-23T09:07:26.574Z,13488
2018-04-23T09:08:26.564Z,13928
2018-04-23T09:09:26.564Z,15488
2018-04-23T09:10:27.011Z,9264
2018-04-23T09:11:26.546Z,18400
2018-04-23T09:12:27.064Z,22944
2018-04-23T09:13:26.784Z,28768
2018-04-23T09:14:26.781Z,17568
2018-04-23T09:15:26.774Z,12440
2018-04-23T09:16:26.512Z,11796
2018-04-23T09:17:26.488Z,10612
2018-04-23T09:18:26.478Z,20768
2018-04-23T09:19:26.477Z,20704
2018-04-23T09:20:26.467Z,28288
2018-04-23T09:21:26.732Z,28128
2018-04-23T09:22:26.181Z,27008
2018-04-23T09:23:26.960Z,12908
2018-04-23T09:24:26.694Z,13652
2018-04-23T09:25:26.686Z,18816
2018-04-23T09:26:26.941Z,13644
2018-04-23T09:27:26.141Z,17824
2018-04-23T09:28:26.656Z,15252
2018-04-23T09:29:26.919Z,18240
2018-04-23T09:30:26.641Z,17376
2018-04-23T09:31:26.632Z,13692
2018-04-23T09:32:26.895Z,11028
2018-04-23T09:33:26.894Z,7600
2018-04-23T09:34:26.611Z,6688
2018-04-23T09:35:26.344Z,6412
2018-04-23T09:36:26.589Z,6640
2018-04-23T09:37:26.323Z,6680
2018-04-23T09:38:26.573Z,6672
2018-04-23T09:39:26.569Z,7012
2018-04-23T09:40:26.561Z,7176
2018-04-23T09:41:26.550Z,8860
2018-04-23T09:42:26.807Z,13364
2018-04-23T09:43:26.547Z,16640
2018-04-23T09:44:26.657Z,17376
2018-04-23T09:45:26.517Z,14080
2018-04-23T09:46:26.504Z,10100
2018-04-23T09:47:26.507Z,9344
2018-04-23T09:48:25.961Z,8680
2018-04-23T09:49:26.495Z,7676
2018-04-23T09:50:26.213Z,8280
2018-04-23T09:51:26.733Z,9268
2018-04-23T09:52:26.465Z,8408
2018-04-23T09:53:26.713Z,8420
2018-04-23T09:54:26.720Z,10708
2018-04-23T09:55:26.176Z,24896
2018-04-23T09:56:26.428Z,17556
2018-04-23T09:57:26.148Z,7480
2018-04-23T09:58:26.147Z,7916
2018-04-23T09:59:26.132Z,8872
2018-04-23T10:00:26.668Z,9164
2018-04-23T10:01:26.382Z,6508
2018-04-23T10:02:26.371Z,9400
2018-04-23T10:03:26.366Z,7888
2018-04-23T10:04:25.821Z,8768
2018-04-23T10:05:26.362Z,6276
2018-04-23T10:06:26.341Z,10072
2018-04-23T10:07:26.328Z,9280
2018-04-23T10:08:25.791Z,7444
2018-04-23T10:09:26.635Z,8388
2018-04-23T10:10:26.300Z,7740
2018-04-23T10:11:26.576Z,18208
2018-04-23T10:12:26.291Z,13376
2018-04-23T10:13:26.016Z,28640
2018-04-23T10:14:26.030Z,17344
2018-04-23T10:15:26.254Z,14636
2018-04-23T10:16:26.245Z,16980
2018-04-23T10:17:26.242Z,13504
2018-04-23T10:18:26.498Z,15560
2018-04-23T10:19:25.957Z,18752
2018-04-23T10:20:26.222Z,16672
2018-04-23T10:21:26.211Z,11260
2018-04-23T10:22:25.934Z,18688
2018-04-23T10:23:25.935Z,13280
2018-04-23T10:24:26.445Z,25728
2018-04-23T10:25:26.175Z,93888
2018-04-23T10:26:26.168Z,50752
2018-04-23T10:27:26.149Z,35520
2018-04-23T10:28:25.619Z,21440
2018-04-23T10:29:26.148Z,29856
2018-04-23T10:30:26.147Z,37376
2018-04-23T10:31:26.169Z,46240
2018-04-23T10:32:26.390Z,10668
2018-04-23T10:33:25.863Z,51904
2018-04-23T10:34:26.135Z,14860
2018-04-23T10:35:26.415Z,21536
2018-04-23T10:36:26.099Z,21984
2018-04-23T10:37:26.086Z,24672
2018-04-23T10:38:26.102Z,21920
2018-04-23T10:39:25.549Z,19232
2018-04-23T10:40:26.073Z,12916
2018-04-23T10:41:26.065Z,14224
2018-04-23T10:42:26.065Z,12376
2018-04-23T10:43:25.996Z,19040
2018-04-23T10:44:26.062Z,17120
2018-04-23T10:45:26.426Z,19296
2018-04-23T10:46:25.775Z,10664
2018-04-23T10:47:26.042Z,8220
2018-04-23T10:48:25.500Z,9920
2018-04-23T10:49:26.282Z,26080
2018-04-23T10:50:26.011Z,55200
2018-04-23T10:51:25.746Z,53152
2018-04-23T10:52:26.001Z,13400
2018-04-23T10:53:26.270Z,12432
2018-04-23T10:54:25.732Z,16076
2018-04-23T10:55:26.048Z,15444
2018-04-23T10:56:25.720Z,12768
2018-04-23T10:57:25.704Z,30688
2018-04-23T10:58:25.959Z,29024
2018-04-23T10:59:26.224Z,18944
2018-04-23T11:00:25.966Z,44896
2018-04-23T11:01:25.684Z,10268
2018-04-23T11:02:26.203Z,8948
2018-04-23T11:03:25.983Z,9140
2018-04-23T11:04:26.189Z,11336
2018-04-23T11:05:25.923Z,68352
2018-04-23T11:06:25.919Z,91840
2018-04-23T11:07:26.169Z,92064
2018-04-23T11:08:25.901Z,91456
2018-04-23T11:09:25.632Z,89120
2018-04-23T11:10:25.630Z,88896
2018-04-23T11:11:26.157Z,50016
2018-04-23T11:12:25.886Z,63968
2018-04-23T11:13:25.881Z,32864
2018-04-23T11:14:25.358Z,89024
2018-04-23T11:15:25.872Z,93440
2018-04-23T11:16:25.867Z,21536
2018-04-23T11:17:25.605Z,17312
2018-04-23T11:18:25.875Z,65984
2018-04-23T11:19:25.870Z,22272
2018-04-23T11:20:25.873Z,80800
2018-04-23T11:21:25.600Z,80320
2018-04-23T11:22:25.606Z,73696
2018-04-23T11:23:25.607Z,73824
2018-04-23T11:24:25.860Z,71072
2018-04-23T11:25:25.592Z,21440
2018-04-23T11:26:25.858Z,11800
2018-04-23T11:27:26.133Z,12352
2018-04-23T11:28:25.595Z,86592
2018-04-23T11:29:25.860Z,20928
2018-04-23T11:30:26.128Z,28128
2018-04-23T11:31:25.594Z,27200
2018-04-23T11:32:25.936Z,86720
2018-04-23T11:33:25.595Z,11864
2018-04-23T11:34:25.591Z,96224
2018-04-23T11:35:25.864Z,99392
2018-04-23T11:36:26.120Z,97504
2018-04-23T11:37:25.587Z,96096
2018-04-23T11:38:26.114Z,78816
2018-04-23T11:39:25.850Z,92864
2018-04-23T11:40:25.587Z,89120
2018-04-23T11:41:25.854Z,14244
2018-04-23T11:42:25.847Z,93792
2018-04-23T11:43:25.579Z,26432
2018-04-23T11:44:25.860Z,104448
2018-04-23T11:45:25.581Z,109376
2018-04-23T11:46:25.582Z,113088
2018-04-23T11:47:26.115Z,111072
2018-04-23T11:48:25.848Z,109152
2018-04-23T11:49:25.851Z,103328
2018-04-23T11:50:25.589Z,95072
2018-04-23T11:51:25.857Z,86816
2018-04-23T11:52:25.590Z,79488
2018-04-23T11:53:25.595Z,77760
2018-04-23T11:54:26.121Z,80448
2018-04-23T11:55:25.870Z,87296
2018-04-23T11:56:25.866Z,93440
2018-04-23T11:57:25.610Z,97664
2018-04-23T11:58:25.608Z,101024
2018-04-23T11:59:25.901Z,101472
2018-04-23T12:00:25.881Z,98944
2018-04-23T12:01:25.353Z,96064
2018-04-23T12:02:26.003Z,94848
2018-04-23T12:03:25.891Z,92992
2018-04-23T12:04:25.917Z,92128
2018-04-23T12:05:26.166Z,95104
2018-04-23T12:06:26.166Z,97248
2018-04-23T12:07:26.175Z,99104
2018-04-23T12:08:25.912Z,100096
2018-04-23T12:09:26.184Z,102720
2018-04-23T12:10:25.921Z,99648
2018-04-23T12:11:25.919Z,96960
2018-04-23T12:12:27.016Z,91424
2018-04-23T12:13:25.923Z,89152
2018-04-23T12:14:25.973Z,89056
2018-04-23T12:15:26.231Z,94880
2018-04-23T12:16:26.206Z,99552
2018-04-23T12:17:26.232Z,103456
2018-04-23T12:18:25.997Z,100640
2018-04-23T12:19:25.428Z,97568
2018-04-23T12:20:25.694Z,93792
2018-04-23T12:21:25.963Z,92160
2018-04-23T12:22:25.443Z,89728
2018-04-23T12:23:25.974Z,85984
2018-04-23T12:24:25.458Z,78464
2018-04-23T12:25:25.724Z,70016
2018-04-23T12:26:25.734Z,64000
2018-04-23T12:27:25.750Z,58016
2018-04-23T12:28:26.271Z,58016
2018-04-23T12:29:26.277Z,66528
2018-04-23T12:30:25.748Z,75424
2018-04-23T12:31:26.193Z,86912
2018-04-23T12:32:26.287Z,30080
2018-04-23T12:33:26.032Z,26336
2018-04-23T12:34:26.085Z,101248
2018-04-23T12:35:25.779Z,88928
2018-04-23T12:36:25.516Z,97152
2018-04-23T12:37:25.792Z,14164
2018-04-23T12:38:26.330Z,14948
2018-04-23T12:39:26.065Z,101664
2018-04-23T12:40:26.339Z,105376
2018-04-23T12:41:25.802Z,107392
2018-04-23T12:42:26.343Z,106112
2018-04-23T12:43:26.544Z,89120
2018-04-23T12:44:25.547Z,93920
2018-04-23T12:45:26.342Z,90208
2018-04-23T12:46:26.489Z,82560
2018-04-23T12:47:25.824Z,75488
2018-04-23T12:48:26.080Z,71680
2018-04-23T12:49:26.368Z,66080
2018-04-23T12:50:26.090Z,63136
2018-04-23T12:51:25.836Z,56384
2018-04-23T12:52:26.360Z,73696
2018-04-23T12:53:26.109Z,20416
2018-04-23T12:54:26.376Z,16664
2018-04-23T12:55:26.119Z,106720
2018-04-23T12:56:26.389Z,105696
2018-04-23T12:57:26.114Z,98304
2018-04-23T12:58:26.387Z,95552
2018-04-23T12:59:26.123Z,88608
2018-04-23T13:00:26.135Z,82944
2018-04-23T13:01:26.129Z,46784
2018-04-23T13:02:25.862Z,83104
2018-04-23T13:03:25.875Z,21056
2018-04-23T13:04:25.654Z,78880
2018-04-23T13:05:26.406Z,102784
2018-04-23T13:06:26.408Z,22336
2018-04-23T13:07:26.409Z,89408
2018-04-23T13:08:26.155Z,81216
2018-04-23T13:09:25.888Z,50624
2018-04-23T13:10:26.166Z,16600
2018-04-23T13:11:25.926Z,68096
2018-04-23T13:12:26.622Z,17472
2018-04-23T13:13:26.155Z,84928
2018-04-23T13:14:26.156Z,20064
2018-04-23T13:15:26.292Z,30496
2018-04-23T13:16:25.663Z,82112
2018-04-23T13:17:26.191Z,15072
2018-04-23T13:18:26.408Z,13068
2018-04-23T13:19:25.944Z,11576
2018-04-23T13:20:25.642Z,12668
2018-04-23T13:21:26.201Z,73312
2018-04-23T13:22:26.280Z,75488
2018-04-23T13:23:25.911Z,78976
2018-04-23T13:24:26.251Z,24928
2018-04-23T13:25:26.231Z,77120
2018-04-23T13:26:26.489Z,75520
2018-04-23T13:27:25.920Z,65696
2018-04-23T13:28:26.195Z,18816
2018-04-23T13:29:26.181Z,58080
2018-04-23T13:30:26.213Z,20896
2018-04-23T13:31:26.683Z,79744
2018-04-23T13:32:26.491Z,74496
2018-04-23T13:33:26.194Z,74432
2018-04-23T13:34:26.258Z,63840
2018-04-23T13:35:26.452Z,53920